Wetterdaten: Woche 06.03.17 - 12.03.17 (KW10)
Datum Zeit Temp. A. Feuchte A. Luftdruck Regen Wind Richtung Taupunkt Windchill Windben
06.03.2017 00:00 2,0 C 93 % 1004,6 hPa 2,5 l/m 8,0 km/h (2 Bft) O-NO 1,0 C 0,5 C 17,0 km/h (3 Bft)
06.03.2017 01:00 1,2 C 94 % 1006,1 hPa 3,0 l/m 5,5 km/h (2 Bft) O-NO 0,3 C 1,0 C 13,4 km/h (3 Bft)
06.03.2017 02:00 1,6 C 94 % 1006,1 hPa 1,0 l/m 6,9 km/h (2 Bft) O-NO 0,8 C 1,0 C 16,2 km/h (3 Bft)
06.03.2017 03:00 2,0 C 92 % 1005,7 hPa 0,5 l/m 6,6 km/h (2 Bft) O-NO 0,9 C 1,5 C 16,8 km/h (3 Bft)
06.03.2017 04:00 2,1 C 91 % 1005,4 hPa 0,5 l/m 6,8 km/h (2 Bft) NO 0,8 C 1,5 C 16,6 km/h (3 Bft)
06.03.2017 05:00 2,3 C 91 % 1005,3 hPa 0,5 l/m 6,0 km/h (2 Bft) O-NO 1,0 C 2,0 C 13,8 km/h (3 Bft)
06.03.2017 06:00 2,3 C 91 % 1005,2 hPa 0,8 l/m 5,8 km/h (2 Bft) O-NO 1,0 C 1,8 C 14,5 km/h (3 Bft)
06.03.2017 07:00 2,2 C 92 % 1005,2 hPa 0,3 l/m 4,2 km/h (1 Bft) O-NO 1,1 C 2,2 C 12,5 km/h (2 Bft)
06.03.2017 08:00 3,1 C 90 % 1004,8 hPa 0,3 l/m 5,1 km/h (1 Bft) NO 1,5 C 3,1 C 12,8 km/h (3 Bft)
06.03.2017 09:00 3,5 C 89 % 1004,6 hPa 0,3 l/m 5,0 km/h (1 Bft) NO 1,9 C 3,5 C 12,8 km/h (3 Bft)
06.03.2017 10:00 4,0 C 90 % 1004,0 hPa 0,3 l/m 5,9 km/h (2 Bft) O 2,4 C 3,5 C 15,3 km/h (3 Bft)
06.03.2017 11:00 5,8 C 79 % 1002,7 hPa 0,3 l/m 7,3 km/h (2 Bft) O-NO 2,4 C 4,8 C 16,4 km/h (3 Bft)
06.03.2017 12:00 6,3 C 70 % 1002,3 hPa 0,0 l/m 8,1 km/h (2 Bft) O-NO 1,3 C 4,6 C 16,3 km/h (3 Bft)
06.03.2017 13:00 5,6 C 73 % 1001,2 hPa 0,0 l/m 4,5 km/h (1 Bft) O 1,1 C 5,5 C 11,4 km/h (2 Bft)
06.03.2017 14:00 4,7 C 85 % 1000,1 hPa 0,0 l/m 0,5 km/h (0 Bft) SO 2,4 C 4,7 C 2,1 km/h (1 Bft)
06.03.2017 15:00 4,7 C 86 % 999,7 hPa 0,3 l/m 0,6 km/h (0 Bft) S-SO 2,6 C 4,7 C 2,8 km/h (1 Bft)
06.03.2017 16:00 3,9 C 91 % 1000,3 hPa 0,8 l/m 1,2 km/h (1 Bft) S-SO 2,6 C 3,9 C 3,2 km/h (1 Bft)
06.03.2017 17:00 3,2 C 93 % 1001,1 hPa 0,0 l/m 2,6 km/h (1 Bft) O 2,1 C 3,2 C 5,4 km/h (2 Bft)
06.03.2017 18:00 2,8 C 94 % 1002,4 hPa 0,0 l/m 1,5 km/h (1 Bft) SO 1,9 C 2,8 C 3,2 km/h (1 Bft)
06.03.2017 19:00 2,7 C 95 % 1003,8 hPa 0,0 l/m 1,1 km/h (1 Bft) O-NO 1,9 C 2,7 C 2,8 km/h (1 Bft)
06.03.2017 20:00 2,7 C 95 % 1004,9 hPa 0,5 l/m 1,7 km/h (1 Bft) O 2,0 C 2,7 C 3,8 km/h (1 Bft)
06.03.2017 21:00 2,9 C 94 % 1006,0 hPa 0,5 l/m 1,9 km/h (1 Bft) O 2,0 C 2,9 C 4,0 km/h (1 Bft)
06.03.2017 22:00 3,1 C 93 % 1007,2 hPa 0,0 l/m 3,1 km/h (1 Bft) O 2,0 C 3,1 C 6,6 km/h (2 Bft)
06.03.2017 23:00 3,1 C 91 % 1008,1 hPa 0,3 l/m 4,1 km/h (1 Bft) O 1,8 C 3,0 C 8,4 km/h (2 Bft)
07.03.2017 00:00 2,8 C 92 % 1008,8 hPa 0,8 l/m 3,4 km/h (1 Bft) O-NO 1,6 C 2,8 C 8,4 km/h (2 Bft)
07.03.2017 01:00 2,6 C 92 % 1009,8 hPa 0,3 l/m 4,4 km/h (1 Bft) O-NO 1,3 C 2,6 C 13,3 km/h (3 Bft)
07.03.2017 02:00 2,3 C 92 % 1010,2 hPa 1,3 l/m 4,2 km/h (1 Bft) O 1,1 C 2,2 C 11,8 km/h (2 Bft)
07.03.2017 03:00 1,9 C 94 % 1010,6 hPa 0,8 l/m 3,9 km/h (1 Bft) O 1,0 C 1,9 C 11,0 km/h (2 Bft)
07.03.2017 04:00 2,2 C 93 % 1011,1 hPa 0,3 l/m 4,9 km/h (1 Bft) O-NO 1,2 C 2,2 C 13,8 km/h (3 Bft)
07.03.2017 05:00 1,8 C 94 % 1011,8 hPa 1,3 l/m 4,2 km/h (1 Bft) O-NO 1,0 C 1,8 C 10,7 km/h (2 Bft)
07.03.2017 06:00 1,4 C 94 % 1012,1 hPa 1,5 l/m 2,2 km/h (1 Bft) S-SW 0,6 C 1,4 C 5,3 km/h (1 Bft)
07.03.2017 07:00 0,8 C 95 % 1012,8 hPa 0,5 l/m 1,2 km/h (1 Bft) O-NO 0,2 C 0,8 C 3,7 km/h (1 Bft)
07.03.2017 08:00 1,3 C 95 % 1013,5 hPa 2,3 l/m 2,4 km/h (1 Bft) O 0,6 C 1,3 C 7,1 km/h (2 Bft)
07.03.2017 09:00 1,6 C 95 % 1014,3 hPa 1,5 l/m 3,4 km/h (1 Bft) O-NO 0,8 C 1,6 C 9,3 km/h (2 Bft)
07.03.2017 10:00 2,0 C 94 % 1014,9 hPa 1,0 l/m 3,7 km/h (1 Bft) O 1,2 C 2,0 C 9,7 km/h (2 Bft)
07.03.2017 11:00 2,8 C 94 % 1015,7 hPa 0,3 l/m 4,7 km/h (1 Bft) O 1,9 C 2,8 C 11,7 km/h (2 Bft)
07.03.2017 12:00 3,1 C 93 % 1016,0 hPa 0,3 l/m 5,6 km/h (2 Bft) O-NO 2,1 C 3,0 C 12,5 km/h (2 Bft)
07.03.2017 13:00 3,4 C 93 % 1016,0 hPa 0,3 l/m 5,8 km/h (2 Bft) O-NO 2,4 C 3,1 C 14,0 km/h (3 Bft)
07.03.2017 14:00 2,4 C 94 % 1016,8 hPa 1,0 l/m 2,4 km/h (1 Bft) O 1,5 C 2,4 C 5,7 km/h (2 Bft)
07.03.2017 15:00 3,3 C 94 % 1017,2 hPa 0,0 l/m 3,2 km/h (1 Bft) O-NO 2,4 C 3,3 C 7,1 km/h (2 Bft)
07.03.2017 16:00 3,8 C 91 % 1017,5 hPa 1,0 l/m 2,2 km/h (1 Bft) O-NO 2,4 C 3,8 C 5,9 km/h (2 Bft)
07.03.2017 17:00 2,8 C 93 % 1019,0 hPa 0,0 l/m 0,8 km/h (0 Bft) O-NO 1,8 C 2,8 C 2,2 km/h (1 Bft)
07.03.2017 18:00 2,3 C 94 % 1019,6 hPa 0,0 l/m 0,6 km/h (0 Bft) O-NO 1,4 C 2,3 C 2,3 km/h (1 Bft)
07.03.2017 19:00 2,0 C 96 % 1020,2 hPa 0,0 l/m 1,3 km/h (1 Bft) SO 1,3 C 2,0 C 3,9 km/h (1 Bft)
07.03.2017 20:00 2,0 C 96 % 1020,5 hPa 0,0 l/m 0,5 km/h (0 Bft) SO 1,4 C 2,0 C 2,8 km/h (1 Bft)
07.03.2017 21:00 1,7 C 96 % 1021,3 hPa 0,0 l/m 0,4 km/h (0 Bft) O-SO 1,0 C 1,7 C 2,3 km/h (1 Bft)
07.03.2017 22:00 1,6 C 96 % 1022,1 hPa 0,0 l/m 0,3 km/h (0 Bft) O-SO 1,1 C 1,6 C 2,3 km/h (1 Bft)
07.03.2017 23:00 1,5 C 96 % 1022,6 hPa 0,0 l/m 0,0 km/h (0 Bft) O-SO 0,9 C 1,5 C 0,7 km/h (0 Bft)
08.03.2017 00:00 1,7 C 97 % 1023,1 hPa 0,0 l/m 0,9 km/h (0 Bft) O-SO 1,2 C 1,7 C 2,6 km/h (1 Bft)
08.03.2017 01:00 1,8 C 97 % 1023,7 hPa 0,0 l/m 1,1 km/h (1 Bft) NO 1,4 C 1,8 C 3,6 km/h (1 Bft)
08.03.2017 02:00 2,0 C 96 % 1023,4 hPa 0,0 l/m 1,8 km/h (1 Bft) NO 1,4 C 2,0 C 5,1 km/h (1 Bft)
08.03.2017 03:00 1,8 C 95 % 1023,4 hPa 0,0 l/m 0,9 km/h (0 Bft) NO 1,1 C 1,8 C 2,8 km/h (1 Bft)
08.03.2017 04:00 1,7 C 96 % 1023,6 hPa 0,0 l/m 0,2 km/h (0 Bft) NO 1,1 C 1,7 C 1,5 km/h (1 Bft)
08.03.2017 05:00 0,9 C 96 % 1023,8 hPa 0,0 l/m 0,2 km/h (0 Bft) O 0,3 C 0,9 C 1,3 km/h (1 Bft)
08.03.2017 06:00 -0,1 C 95 % 1024,0 hPa 0,0 l/m 0,0 km/h (0 Bft) O -0,8 C -0,1 C 0,7 km/h (0 Bft)
08.03.2017 07:00 -0,5 C 96 % 1024,0 hPa 0,0 l/m 2,0 km/h (1 Bft) O -1,1 C -0,5 C 5,2 km/h (1 Bft)
08.03.2017 08:00 0,2 C 93 % 1024,5 hPa 0,0 l/m 4,3 km/h (1 Bft) O -0,7 C 0,2 C 10,2 km/h (2 Bft)
08.03.2017 09:00 0,7 C 94 % 1024,5 hPa 0,0 l/m 5,3 km/h (1 Bft) O-NO -0,2 C 0,6 C 13,1 km/h (3 Bft)
08.03.2017 10:00 2,5 C 91 % 1023,7 hPa 0,3 l/m 7,1 km/h (2 Bft) NO 1,1 C 1,3 C 15,8 km/h (3 Bft)
08.03.2017 11:00 4,6 C 86 % 1022,8 hPa 0,0 l/m 7,5 km/h (2 Bft) O-NO 2,4 C 3,3 C 16,9 km/h (3 Bft)
08.03.2017 12:00 5,3 C 84 % 1022,2 hPa 0,0 l/m 6,9 km/h (2 Bft) NO 2,7 C 4,6 C 14,7 km/h (3 Bft)
08.03.2017 13:00 5,4 C 83 % 1022,0 hPa 0,0 l/m 4,6 km/h (1 Bft) NO 2,8 C 5,4 C 11,5 km/h (2 Bft)
08.03.2017 14:00 5,3 C 82 % 1021,8 hPa 0,0 l/m 5,3 km/h (1 Bft) O-NO 2,4 C 5,1 C 13,2 km/h (3 Bft)
08.03.2017 15:00 3,8 C 91 % 1021,2 hPa 1,3 l/m 3,8 km/h (1 Bft) O 2,5 C 3,8 C 8,6 km/h (2 Bft)
08.03.2017 16:00 3,8 C 95 % 1020,4 hPa 0,5 l/m 3,3 km/h (1 Bft) O-NO 3,1 C 3,8 C 6,3 km/h (2 Bft)
08.03.2017 17:00 4,2 C 95 % 1020,5 hPa 0,0 l/m 5,0 km/h (1 Bft) O-NO 3,4 C 4,0 C 10,6 km/h (2 Bft)
08.03.2017 18:00 4,7 C 96 % 1020,1 hPa 0,3 l/m 7,2 km/h (2 Bft) NO 4,0 C 3,7 C 14,4 km/h (3 Bft)
08.03.2017 19:00 5,7 C 96 % 1020,3 hPa 1,0 l/m 7,5 km/h (2 Bft) O-NO 5,1 C 4,8 C 16,6 km/h (3 Bft)
08.03.2017 20:00 6,4 C 95 % 1020,1 hPa 1,8 l/m 8,7 km/h (2 Bft) O-NO 5,7 C 4,5 C 20,9 km/h (4 Bft)
08.03.2017 21:00 6,8 C 96 % 1020,2 hPa 1,3 l/m 7,0 km/h (2 Bft) O-NO 6,2 C 6,2 C 18,4 km/h (3 Bft)
08.03.2017 22:00 7,2 C 96 % 1020,3 hPa 2,0 l/m 5,3 km/h (1 Bft) O-NO 6,6 C 7,1 C 14,6 km/h (3 Bft)
08.03.2017 23:00 7,5 C 96 % 1020,0 hPa 2,0 l/m 5,6 km/h (2 Bft) O-NO 6,9 C 7,4 C 14,8 km/h (3 Bft)
09.03.2017 00:00 7,7 C 96 % 1020,0 hPa 2,3 l/m 6,7 km/h (2 Bft) O-NO 7,1 C 7,2 C 15,1 km/h (3 Bft)
09.03.2017 01:00 7,9 C 96 % 1020,0 hPa 2,0 l/m 5,0 km/h (1 Bft) O-NO 7,3 C 7,7 C 12,9 km/h (3 Bft)
09.03.2017 02:00 8,0 C 96 % 1020,1 hPa 1,8 l/m 4,8 km/h (1 Bft) O 7,4 C 8,0 C 12,8 km/h (3 Bft)
09.03.2017 03:00 8,2 C 96 % 1020,0 hPa 1,8 l/m 4,3 km/h (1 Bft) O-NO 7,6 C 8,2 C 9,9 km/h (2 Bft)
09.03.2017 04:00 8,2 C 96 % 1020,1 hPa 1,5 l/m 3,2 km/h (1 Bft) O-NO 7,6 C 8,2 C 7,8 km/h (2 Bft)
09.03.2017 05:00 8,3 C 96 % 1020,5 hPa 1,8 l/m 4,4 km/h (1 Bft) O-NO 7,7 C 8,3 C 9,7 km/h (2 Bft)
09.03.2017 06:00 8,2 C 96 % 1020,6 hPa 1,3 l/m 3,7 km/h (1 Bft) O-NO 7,6 C 8,2 C 8,5 km/h (2 Bft)
09.03.2017 07:00 8,2 C 96 % 1020,7 hPa 0,8 l/m 4,3 km/h (1 Bft) O-NO 7,6 C 8,2 C 11,2 km/h (2 Bft)
09.03.2017 08:00 8,3 C 96 % 1020,6 hPa 1,3 l/m 4,0 km/h (1 Bft) O-NO 7,7 C 8,3 C 11,1 km/h (2 Bft)
09.03.2017 09:00 8,5 C 96 % 1020,5 hPa 1,3 l/m 4,4 km/h (1 Bft) O-NO 7,9 C 8,5 C 11,1 km/h (2 Bft)
09.03.2017 10:00 8,5 C 96 % 1020,8 hPa 2,8 l/m 3,8 km/h (1 Bft) O 7,9 C 8,5 C 9,9 km/h (2 Bft)
09.03.2017 11:00 8,4 C 96 % 1020,8 hPa 3,0 l/m 4,8 km/h (1 Bft) O-NO 7,8 C 8,4 C 11,1 km/h (2 Bft)
09.03.2017 12:00 8,6 C 96 % 1020,6 hPa 1,5 l/m 4,5 km/h (1 Bft) O-NO 8,1 C 8,5 C 9,3 km/h (2 Bft)
09.03.2017 13:00 9,1 C 95 % 1020,2 hPa 1,3 l/m 4,9 km/h (1 Bft) O 8,4 C 9,0 C 12,3 km/h (2 Bft)
09.03.2017 14:00 9,2 C 95 % 1020,3 hPa 2,0 l/m 4,8 km/h (1 Bft) O 8,5 C 9,2 C 12,6 km/h (3 Bft)
09.03.2017 15:00 9,1 C 95 % 1020,3 hPa 1,3 l/m 5,5 km/h (2 Bft) O 8,4 C 9,1 C 14,5 km/h (3 Bft)
09.03.2017 16:00 9,2 C 95 % 1020,5 hPa 0,3 l/m 4,1 km/h (1 Bft) O 8,4 C 9,2 C 11,2 km/h (2 Bft)
09.03.2017 17:00 8,9 C 95 % 1020,8 hPa 0,0 l/m 3,2 km/h (1 Bft) O-NO 8,1 C 8,9 C 7,8 km/h (2 Bft)
09.03.2017 18:00 8,7 C 95 % 1021,0 hPa 1,5 l/m 2,2 km/h (1 Bft) O-NO 8,0 C 8,7 C 4,7 km/h (1 Bft)
09.03.2017 19:00 8,6 C 95 % 1021,6 hPa 0,3 l/m 1,8 km/h (1 Bft) O 7,9 C 8,6 C 5,4 km/h (1 Bft)
09.03.2017 20:00 8,6 C 94 % 1022,1 hPa 0,0 l/m 2,2 km/h (1 Bft) O 7,7 C 8,6 C 7,5 km/h (2 Bft)
09.03.2017 21:00 8,4 C 92 % 1022,3 hPa 0,0 l/m 2,4 km/h (1 Bft) O-NO 7,2 C 8,4 C 10,1 km/h (2 Bft)
09.03.2017 22:00 8,0 C 92 % 1022,8 hPa 0,0 l/m 2,5 km/h (1 Bft) O 6,8 C 8,0 C 9,2 km/h (2 Bft)
09.03.2017 23:00 7,8 C 91 % 1023,2 hPa 0,0 l/m 2,9 km/h (1 Bft) O 6,4 C 7,8 C 9,9 km/h (2 Bft)
10.03.2017 00:00 7,3 C 91 % 1023,8 hPa 0,0 l/m 0,8 km/h (0 Bft) O-SO 6,0 C 7,3 C 3,0 km/h (1 Bft)
10.03.2017 01:00 6,4 C 91 % 1024,2 hPa 0,0 l/m 0,8 km/h (0 Bft) SO 5,0 C 6,4 C 4,1 km/h (1 Bft)
10.03.2017 02:00 5,2 C 93 % 1024,4 hPa 0,0 l/m 0,6 km/h (0 Bft) O 4,1 C 5,2 C 2,8 km/h (1 Bft)
10.03.2017 03:00 4,7 C 93 % 1024,4 hPa 0,0 l/m 1,7 km/h (1 Bft) O 3,6 C 4,7 C 5,5 km/h (2 Bft)
10.03.2017 04:00 3,9 C 92 % 1024,8 hPa 0,0 l/m 0,9 km/h (0 Bft) S-SW 2,8 C 3,9 C 2,9 km/h (1 Bft)
10.03.2017 05:00 1,9 C 95 % 1025,5 hPa 0,0 l/m 0,5 km/h (0 Bft) W-SW 1,2 C 1,9 C 2,2 km/h (1 Bft)
10.03.2017 06:00 0,9 C 96 % 1025,9 hPa 0,0 l/m 0,4 km/h (0 Bft) W-SW 0,3 C 0,9 C 1,4 km/h (1 Bft)
10.03.2017 07:00 0,2 C 97 % 1026,5 hPa 0,0 l/m 0,1 km/h (0 Bft) W-SW -0,2 C 0,2 C 0,7 km/h (0 Bft)
10.03.2017 08:00 2,0 C 97 % 1027,0 hPa 0,0 l/m 0,8 km/h (0 Bft) W-SW 1,7 C 2,0 C 2,1 km/h (1 Bft)
10.03.2017 09:00 5,0 C 91 % 1027,5 hPa 0,0 l/m 2,2 km/h (1 Bft) W-NW 3,5 C 5,0 C 4,5 km/h (1 Bft)
10.03.2017 10:00 5,9 C 86 % 1027,5 hPa 0,0 l/m 2,2 km/h (1 Bft) NW 3,7 C 5,9 C 5,2 km/h (1 Bft)
10.03.2017 11:00 8,1 C 73 % 1027,3 hPa 0,0 l/m 3,4 km/h (1 Bft) NO 3,5 C 8,1 C 7,6 km/h (2 Bft)
10.03.2017 12:00 9,3 C 65 % 1026,8 hPa 0,0 l/m 4,2 km/h (1 Bft) O 3,0 C 9,3 C 8,6 km/h (2 Bft)
10.03.2017 13:00 10,5 C 57 % 1026,1 hPa 0,0 l/m 3,3 km/h (1 Bft) NO 2,3 C 10,5 C 7,2 km/h (2 Bft)
10.03.2017 14:00 11,8 C 52 % 1025,7 hPa 0,0 l/m 3,6 km/h (1 Bft) N-NO 2,2 C 11,8 C 9,1 km/h (2 Bft)
10.03.2017 15:00 12,0 C 50 % 1025,3 hPa 0,0 l/m 2,2 km/h (1 Bft) S 2,0 C 12,0 C 6,3 km/h (2 Bft)
10.03.2017 16:00 12,0 C 46 % 1024,9 hPa 0,0 l/m 1,7 km/h (1 Bft) O-NO 0,5 C 12,0 C 4,4 km/h (1 Bft)
10.03.2017 17:00 10,3 C 58 % 1025,2 hPa 0,0 l/m 1,0 km/h (0 Bft) W-SW 2,2 C 10,3 C 2,9 km/h (1 Bft)
10.03.2017 18:00 7,7 C 68 % 1025,5 hPa 0,0 l/m 0,5 km/h (0 Bft) W 2,2 C 7,7 C 1,9 km/h (1 Bft)
10.03.2017 19:00 3,9 C 84 % 1026,1 hPa 0,0 l/m 0,0 km/h (0 Bft) W 1,4 C 3,9 C 0,0 km/h (0 Bft)
10.03.2017 20:00 2,7 C 89 % 1026,5 hPa 0,0 l/m 0,0 km/h (0 Bft) W 1,0 C 2,7 C 0,0 km/h (0 Bft)
10.03.2017 21:00 1,4 C 90 % 1026,5 hPa 0,0 l/m 0,1 km/h (0 Bft) W -0,1 C 1,4 C 0,7 km/h (0 Bft)
10.03.2017 22:00 -0,1 C 92 % 1026,4 hPa 0,0 l/m 0,0 km/h (0 Bft) W -1,3 C -0,1 C 0,1 km/h (0 Bft)
10.03.2017 23:00 -1,1 C 93 % 1026,4 hPa 0,0 l/m 0,0 km/h (0 Bft) W -2,1 C -1,1 C 0,3 km/h (0 Bft)
11.03.2017 00:00 -1,7 C 95 % 1026,4 hPa 0,0 l/m 0,0 km/h (0 Bft) W -2,4 C -1,7 C 0,7 km/h (0 Bft)
11.03.2017 01:00 -2,4 C 95 % 1026,4 hPa 0,0 l/m 0,0 km/h (0 Bft) W -3,1 C -2,4 C 0,0 km/h (0 Bft)
11.03.2017 02:00 -2,7 C 95 % 1025,9 hPa 0,0 l/m 0,0 km/h (0 Bft) W -3,4 C -2,7 C 0,0 km/h (0 Bft)
11.03.2017 03:00 -3,0 C 95 % 1025,3 hPa 0,0 l/m 0,0 km/h (0 Bft) W -3,6 C -3,0 C 0,0 km/h (0 Bft)
11.03.2017 04:00 -3,2 C 95 % 1025,1 hPa 0,0 l/m 0,0 km/h (0 Bft) W -3,9 C -3,2 C 0,1 km/h (0 Bft)
11.03.2017 05:00 -3,6 C 95 % 1024,5 hPa 0,0 l/m 0,0 km/h (0 Bft) W -4,3 C -3,6 C 0,0 km/h (0 Bft)
11.03.2017 06:00 -3,8 C 95 % 1024,3 hPa 0,0 l/m 0,0 km/h (0 Bft) W -4,5 C -3,8 C 0,1 km/h (0 Bft)
11.03.2017 07:00 -3,4 C 96 % 1024,3 hPa 0,0 l/m 0,0 km/h (0 Bft) W -4,0 C -3,4 C 0,3 km/h (0 Bft)
11.03.2017 08:00 -0,1 C 93 % 1024,1 hPa 0,0 l/m 0,5 km/h (0 Bft) W -1,1 C -0,1 C 1,9 km/h (1 Bft)
11.03.2017 09:00 2,3 C 89 % 1023,6 hPa 0,0 l/m 1,0 km/h (0 Bft) NW 0,7 C 2,3 C 2,7 km/h (1 Bft)
11.03.2017 10:00 5,8 C 77 % 1023,0 hPa 0,0 l/m 1,6 km/h (1 Bft) NW 2,0 C 5,8 C 4,5 km/h (1 Bft)
11.03.2017 11:00 10,2 C 57 % 1022,2 hPa 0,0 l/m 2,1 km/h (1 Bft) W-NW 2,0 C 10,2 C 5,4 km/h (2 Bft)
11.03.2017 12:00 12,4 C 46 % 1021,7 hPa 0,0 l/m 3,1 km/h (1 Bft) W-NW 1,2 C 12,4 C 6,5 km/h (2 Bft)
11.03.2017 13:00 13,7 C 36 % 1020,7 hPa 0,0 l/m 3,1 km/h (1 Bft) W-NW -1,1 C 13,7 C 7,9 km/h (2 Bft)
11.03.2017 14:00 14,7 C 27 % 1019,8 hPa 0,0 l/m 3,0 km/h (1 Bft) W-NW -4,2 C 14,7 C 7,6 km/h (2 Bft)
11.03.2017 15:00 14,7 C 34 % 1019,5 hPa 0,0 l/m 3,3 km/h (1 Bft) W-NW -1,1 C 14,7 C 8,3 km/h (2 Bft)
11.03.2017 16:00 13,4 C 45 % 1019,1 hPa 0,0 l/m 3,9 km/h (1 Bft) NW 1,8 C 13,4 C 9,8 km/h (2 Bft)
11.03.2017 17:00 12,1 C 50 % 1019,1 hPa 0,0 l/m 1,1 km/h (1 Bft) W-SW 2,1 C 12,1 C 3,4 km/h (1 Bft)
11.03.2017 18:00 10,5 C 58 % 1019,2 hPa 0,0 l/m 0,3 km/h (0 Bft) W-SW 2,5 C 10,5 C 1,5 km/h (1 Bft)
11.03.2017 19:00 7,0 C 73 % 1019,2 hPa 0,0 l/m 0,0 km/h (0 Bft) W-SW 2,5 C 7,0 C 0,5 km/h (0 Bft)
11.03.2017 20:00 4,8 C 81 % 1019,3 hPa 0,0 l/m 0,0 km/h (0 Bft) W-SW 1,8 C 4,8 C 0,0 km/h (0 Bft)
11.03.2017 21:00 3,2 C 86 % 1019,2 hPa 0,0 l/m 0,0 km/h (0 Bft) W-SW 1,1 C 3,2 C 0,0 km/h (0 Bft)
11.03.2017 22:00 2,1 C 89 % 1019,2 hPa 0,0 l/m 0,0 km/h (0 Bft) W-SW 0,5 C 2,1 C 0,0 km/h (0 Bft)
11.03.2017 23:00 1,4 C 91 % 1018,9 hPa 0,0 l/m 0,0 km/h (0 Bft) W-SW 0,1 C 1,4 C 0,0 km/h (0 Bft)
12.03.2017 00:00 1,0 C 92 % 1018,7 hPa 0,0 l/m 0,0 km/h (0 Bft) W-SW -0,1 C 1,0 C 0,0 km/h (0 Bft)
12.03.2017 01:00 0,4 C 93 % 1018,2 hPa 0,0 l/m 0,0 km/h (0 Bft) W-SW -0,6 C 0,4 C 0,0 km/h (0 Bft)
12.03.2017 02:00 -0,3 C 93 % 1017,7 hPa 0,0 l/m 0,0 km/h (0 Bft) W-SW -1,2 C -0,3 C 0,0 km/h (0 Bft)
12.03.2017 03:00 -0,9 C 94 % 1017,1 hPa 0,0 l/m 0,0 km/h (0 Bft) W-SW -1,8 C -0,9 C 0,0 km/h (0 Bft)
12.03.2017 04:00 -1,7 C 94 % 1016,6 hPa 0,0 l/m 0,0 km/h (0 Bft) W-SW -2,5 C -1,7 C 0,0 km/h (0 Bft)
12.03.2017 05:00 -2,2 C 95 % 1016,3 hPa 0,0 l/m 0,0 km/h (0 Bft) W-SW -2,9 C -2,2 C 0,2 km/h (0 Bft)
12.03.2017 06:00 -2,5 C 95 % 1016,2 hPa 0,0 l/m 0,0 km/h (0 Bft) W-SW -3,2 C -2,5 C 0,0 km/h (0 Bft)
12.03.2017 07:00 -2,1 C 96 % 1016,3 hPa 0,0 l/m 0,0 km/h (0 Bft) W-SW -2,7 C -2,1 C 0,0 km/h (0 Bft)
12.03.2017 08:00 0,7 C 92 % 1016,3 hPa 0,0 l/m 0,4 km/h (0 Bft) W-SW -0,4 C 0,7 C 1,6 km/h (1 Bft)
12.03.2017 09:00 4,7 C 80 % 1016,0 hPa 0,0 l/m 1,7 km/h (1 Bft) W-NW 1,4 C 4,7 C 4,0 km/h (1 Bft)
12.03.2017 10:00 8,1 C 58 % 1015,5 hPa 0,0 l/m 3,3 km/h (1 Bft) W-NW 0,4 C 8,1 C 8,3 km/h (2 Bft)
12.03.2017 11:00 10,0 C 48 % 1015,0 hPa 0,0 l/m 3,2 km/h (1 Bft) W -0,4 C 10,0 C 9,0 km/h (2 Bft)
12.03.2017 12:00 11,5 C 45 % 1014,7 hPa 0,0 l/m 3,8 km/h (1 Bft) W-NW -0,0 C 11,4 C 8,6 km/h (2 Bft)
12.03.2017 13:00 12,8 C 41 % 1014,0 hPa 0,0 l/m 3,7 km/h (1 Bft) NW -0,0 C 12,8 C 8,6 km/h (2 Bft)
12.03.2017 14:00 14,2 C 37 % 1013,6 hPa 0,0 l/m 3,4 km/h (1 Bft) W-NW -0,2 C 14,2 C 9,1 km/h (2 Bft)
12.03.2017 15:00 14,4 C 33 % 1013,2 hPa 0,0 l/m 3,4 km/h (1 Bft) W -1,5 C 14,4 C 9,0 km/h (2 Bft)
12.03.2017 16:00 14,0 C 31 % 1013,1 hPa 0,0 l/m 3,9 km/h (1 Bft) W -2,9 C 14,0 C 9,3 km/h (2 Bft)
12.03.2017 17:00 12,3 C 32 % 1013,4 hPa 0,0 l/m 2,3 km/h (1 Bft) W -3,9 C 12,3 C 6,0 km/h (2 Bft)
12.03.2017 18:00 10,0 C 43 % 1013,8 hPa 0,0 l/m 0,7 km/h (0 Bft) SW -2,2 C 10,0 C 2,1 km/h (1 Bft)
12.03.2017 19:00 6,2 C 63 % 1014,8 hPa 0,0 l/m 0,1 km/h (0 Bft) SW -0,3 C 6,2 C 1,5 km/h (1 Bft)
12.03.2017 20:00 4,0 C 73 % 1015,6 hPa 0,0 l/m 0,0 km/h (0 Bft) SW -0,5 C 4,0 C 0,0 km/h (0 Bft)
12.03.2017 21:00 2,2 C 80 % 1016,3 hPa 0,0 l/m 0,0 km/h (0 Bft) SW -0,9 C 2,2 C 0,5 km/h (0 Bft)
12.03.2017 22:00 0,9 C 84 % 1016,8 hPa 0,0 l/m 0,1 km/h (0 Bft) SW -1,4 C 0,9 C 0,7 km/h (0 Bft)
12.03.2017 23:00 0,0 C 87 % 1017,4 hPa 0,0 l/m 0,0 km/h (0 Bft) SW -1,8 C 0,0 C 0,0 km/h (0 Bft)
Min-Datum _ 11.03.17 11.03.17 06.03.17 - 12.03.17 - 11.03.17 06.03.17 12.03.17
_ Min-Zeit 07:20 15:05 15:05 - 23:00 - 15:05 00:15 23:00
Minimum _ -4,0 C 24 % 999,6 hPa - 0,0 km/h (0 Bft) - -5,5 C -4,2 C 0,0 km/h (0 Bft)
Max-Datum _ 11.03.17 10.03.17 10.03.17 06.03.17 08.03.17 - 09.03.17 11.03.17 06.03.17
_ Max-Zeit 15:10 08:05 10:15 01:00 12:06 - 14:25 15:10 00:15
Maximum _ 15,1 C 98 % 1027,6 hPa 3,0 l/m 14,5 km/h
NO (3 Bft)
- 8,7 C 15,1 C 29,0 km/h
NO (5 Bft)
Durchschnitt _ 4,6 C 85 % 1018,0 hPa #66,8 l/m 2,7 km/h (1 Bft) O-NO 1,9 C 4,5 C 6,8 km/h (2 Bft)